Time;durP1;ratioP1;P1;durP2;ratioP2;P2;SDS_P1;SDS_P2;PMS_P1;PMS_P2;Temp;Humidity;BMP_temperature;BMP_pressure;BME280_temperature;BME280_humidity;BME280_pressure;Samples;Min_cycle;Max_cycle;Signal;HPM_P1;HPM_P2
2022/01/09 00:01:50;;;;;;;1.20;0.80;;;;;;;5.96;68.80;94603.09;5070093;28;20199;-70
2022/01/09 00:04:15;;;;;;;1.90;1.20;;;;;;;6.03;69.09;94592.00;5070798;28;20203;-71
2022/01/09 00:06:41;;;;;;;1.60;1.10;;;;;;;5.77;69.88;94596.75;5071079;28;20231;-72
2022/01/09 00:09:06;;;;;;;0.90;0.80;;;;;;;5.97;69.73;94594.31;5070920;28;20206;-72
2022/01/09 00:11:32;;;;;;;1.30;0.80;;;;;;;6.01;69.86;94588.78;5071230;28;20224;-70
2022/01/09 00:13:58;;;;;;;1.93;0.80;;;;;;;6.07;69.76;94586.25;5070957;28;20729;-72
2022/01/09 00:16:23;;;;;;;2.23;0.83;;;;;;;5.86;70.51;94578.44;5071372;28;20190;-71
2022/01/09 00:18:50;;;;;;;1.80;0.80;;;;;;;5.80;71.46;94580.78;5070362;28;20182;-73
2022/01/09 00:21:16;;;;;;;1.00;0.70;;;;;;;5.78;70.94;94571.56;5068251;28;20193;-71
2022/01/09 00:23:47;;;;;;;1.30;0.90;;;;;;;5.56;71.64;94576.75;5067910;28;20456;-71
2022/01/09 00:26:13;;;;;;;1.47;0.70;;;;;;;5.79;71.62;94571.38;5071759;28;20413;-71
2022/01/09 00:28:38;;;;;;;1.00;0.70;;;;;;;5.86;71.64;94562.84;5071216;28;20463;-72
2022/01/09 00:31:04;;;;;;;1.50;0.80;;;;;;;6.01;71.22;94566.16;5071316;28;20190;-71
2022/01/09 00:33:29;;;;;;;1.53;1.17;;;;;;;5.91;71.56;94550.91;5065806;28;20210;-71
2022/01/09 00:35:55;;;;;;;1.13;0.70;;;;;;;5.68;71.47;94553.69;5060997;28;20202;-71
2022/01/09 00:38:21;;;;;;;1.00;0.70;;;;;;;5.57;72.02;94551.59;5069937;28;20967;-71
2022/01/09 00:40:47;;;;;;;1.00;0.60;;;;;;;5.65;71.94;94546.25;5069239;28;20186;-71
2022/01/09 00:43:13;;;;;;;1.93;0.77;;;;;;;5.77;71.51;94549.16;5070808;28;20457;-72
2022/01/09 00:45:40;;;;;;;1.93;0.70;;;;;;;5.61;72.28;94537.22;5072570;28;20193;-73
2022/01/09 00:48:06;;;;;;;1.30;0.70;;;;;;;5.69;71.64;94527.50;5055666;28;20190;-72
2022/01/09 00:50:33;;;;;;;1.00;0.60;;;;;;;5.38;72.89;94517.44;5075099;28;20421;-71
2022/01/09 00:52:59;;;;;;;0.90;0.70;;;;;;;5.66;72.12;94532.28;5065678;28;20437;-71
2022/01/09 00:55:25;;;;;;;0.80;0.60;;;;;;;5.76;72.15;94534.56;5075011;28;20429;-70
2022/01/09 00:57:51;;;;;;;0.80;0.60;;;;;;;5.57;72.79;94534.19;5073653;28;20439;-71
2022/01/09 01:00:16;;;;;;;0.90;0.73;;;;;;;5.62;72.29;94525.84;5065182;28;20426;-71
2022/01/09 01:02:42;;;;;;;1.00;0.77;;;;;;;5.66;72.46;94521.88;5073948;28;20210;-73
2022/01/09 01:05:08;;;;;;;1.27;0.90;;;;;;;5.60;73.50;94531.22;5066108;28;20174;-71
2022/01/09 01:07:34;;;;;;;0.90;0.67;;;;;;;5.51;73.31;94525.34;5071484;28;20839;-71
2022/01/09 01:10:00;;;;;;;1.00;0.63;;;;;;;5.55;73.32;94523.19;5060458;28;20421;-72
2022/01/09 01:12:27;;;;;;;1.30;0.80;;;;;;;5.70;72.52;94515.34;5064377;28;20198;-71
2022/01/09 01:14:53;;;;;;;0.80;0.50;;;;;;;5.63;72.82;94517.88;5072703;28;20680;-71
2022/01/09 01:17:20;;;;;;;0.93;0.70;;;;;;;5.71;72.87;94511.75;5073282;28;20436;-72
2022/01/09 01:19:46;;;;;;;0.70;0.50;;;;;;;5.69;73.03;94517.13;5057763;28;20789;-71
2022/01/09 01:22:12;;;;;;;0.90;0.60;;;;;;;5.72;72.54;94509.94;5066419;28;20444;-71
2022/01/09 01:24:39;;;;;;;0.80;0.60;;;;;;;5.73;72.99;94516.75;5039283;28;20650;-72
2022/01/09 01:27:05;;;;;;;0.80;0.60;;;;;;;5.95;72.31;94507.91;5071947;28;20421;-71
2022/01/09 01:29:30;;;;;;;0.70;0.60;;;;;;;5.99;71.95;94514.38;5063082;28;20939;-71
2022/01/09 01:31:56;;;;;;;0.80;0.60;;;;;;;5.76;72.67;94517.16;5068576;28;20964;-69
2022/01/09 01:34:21;;;;;;;0.80;0.60;;;;;;;5.82;72.98;94516.44;5074522;28;20170;-71
2022/01/09 01:36:47;;;;;;;0.87;0.60;;;;;;;6.00;72.44;94512.56;5073417;28;20668;-72
2022/01/09 01:39:12;;;;;;;0.90;0.60;;;;;;;5.96;72.34;94512.13;5074476;28;20178;-71
2022/01/09 01:41:38;;;;;;;0.80;0.50;;;;;;;5.99;72.21;94505.72;5075047;28;20659;-72
2022/01/09 01:44:08;;;;;;;0.80;0.60;;;;;;;5.96;72.44;94511.34;5075663;28;20210;-72
2022/01/09 01:46:34;;;;;;;0.70;0.50;;;;;;;5.94;73.11;94513.31;5079131;28;20186;-71
2022/01/09 01:48:59;;;;;;;0.80;0.60;;;;;;;6.07;71.92;94507.41;5086680;28;20439;-71
2022/01/09 01:51:25;;;;;;;0.70;0.50;;;;;;;5.90;72.19;94525.88;5081813;28;20195;-72
2022/01/09 01:53:55;;;;;;;0.90;0.60;;;;;;;5.73;73.00;94516.75;5065731;28;20210;-70
2022/01/09 01:56:22;;;;;;;0.80;0.50;;;;;;;5.90;72.47;94504.28;5066918;28;20171;-72
2022/01/09 01:58:49;;;;;;;0.80;0.60;;;;;;;5.98;72.19;94510.13;5079999;28;20417;-71
2022/01/09 02:01:15;;;;;;;0.80;0.50;;;;;;;6.01;72.19;94506.38;5064493;28;20409;-72
2022/01/09 02:03:40;;;;;;;0.70;0.50;;;;;;;5.84;72.65;94498.03;5084015;28;20467;-71
2022/01/09 02:06:06;;;;;;;0.80;0.60;;;;;;;6.01;72.39;94500.38;5082143;28;20186;-71
2022/01/09 02:08:32;;;;;;;0.80;0.50;;;;;;;6.18;71.34;94496.47;5080025;28;20237;-72
2022/01/09 02:10:57;;;;;;;0.70;0.40;;;;;;;5.80;72.80;94494.19;5075048;28;20186;-72
2022/01/09 02:13:23;;;;;;;0.80;0.60;;;;;;;5.62;73.52;94502.47;5069904;28;20433;-72
2022/01/09 02:15:49;;;;;;;0.70;0.50;;;;;;;5.65;74.05;94504.69;5062023;28;20630;-72
2022/01/09 02:18:20;;;;;;;1.03;0.47;;;;;;;6.04;71.90;94508.59;5073461;28;20862;-71
2022/01/09 02:20:47;;;;;;;0.80;0.60;;;;;;;6.20;71.59;94512.69;5082980;28;20425;-71
2022/01/09 02:23:15;;;;;;;0.90;0.50;;;;;;;5.96;72.33;94512.13;5071561;28;20478;-71
2022/01/09 02:25:41;;;;;;;0.80;0.57;;;;;;;5.95;72.71;94507.91;5072794;28;20417;-72
2022/01/09 02:28:08;;;;;;;0.87;0.60;;;;;;;6.11;72.17;94508.66;5073963;28;20923;-70
2022/01/09 02:30:37;;;;;;;0.70;0.50;;;;;;;6.09;71.49;94511.44;5072353;28;20554;-71
2022/01/09 02:33:05;;;;;;;0.80;0.60;;;;;;;5.99;71.97;94503.13;5066229;28;20440;-71
2022/01/09 02:35:31;;;;;;;0.70;0.50;;;;;;;5.97;72.16;94508.53;5065938;28;20438;-70
2022/01/09 02:37:57;;;;;;;0.80;0.50;;;;;;;6.22;70.97;94509.94;5072391;28;20422;-71
2022/01/09 02:40:23;;;;;;;1.33;0.50;;;;;;;5.99;71.88;94511.78;5073579;28;20175;-71
2022/01/09 02:42:50;;;;;;;1.00;0.60;;;;;;;5.99;71.58;94503.97;5072259;28;20218;-72
2022/01/09 02:45:20;;;;;;;0.80;0.50;;;;;;;5.83;72.42;94509.41;5064840;28;20432;-71
2022/01/09 02:47:46;;;;;;;0.70;0.50;;;;;;;5.88;72.29;94501.88;5073688;28;20435;-71
2022/01/09 02:50:28;;;;;;;1.63;0.60;;;;;;;6.02;71.56;94496.81;5063831;28;20908;-72
2022/01/09 02:52:57;;;;;;;0.70;0.50;;;;;;;5.55;73.50;94499.81;5065160;28;20475;-72
2022/01/09 02:55:25;;;;;;;0.80;0.70;;;;;;;5.72;72.61;94518.56;5073956;28;20876;-72
2022/01/09 02:57:54;;;;;;;1.00;0.80;;;;;;;5.84;72.38;94517.06;5074068;28;20524;-72
2022/01/09 03:00:25;;;;;;;0.90;0.60;;;;;;;5.63;73.02;94522.25;5064044;28;20423;-72
2022/01/09 03:02:51;;;;;;;1.20;0.67;;;;;;;5.62;73.60;94526.66;5073199;28;20464;-71
2022/01/09 03:05:17;;;;;;;1.10;0.50;;;;;;;5.68;73.09;94523.28;5071803;28;20773;-72
2022/01/09 03:07:43;;;;;;;0.90;0.60;;;;;;;5.89;72.22;94537.28;5066889;28;20183;-71
2022/01/09 03:10:11;;;;;;;0.70;0.50;;;;;;;5.90;72.30;94535.47;5069349;28;20205;-71
2022/01/09 03:12:37;;;;;;;1.70;0.50;;;;;;;6.14;71.69;94539.47;5071178;28;20448;-71
2022/01/09 03:15:04;;;;;;;0.80;0.60;;;;;;;5.95;71.90;94536.50;5064808;28;20425;-72
2022/01/09 03:17:29;;;;;;;0.80;0.60;;;;;;;5.75;72.45;94535.56;5073078;28;20420;-71
2022/01/09 03:19:55;;;;;;;0.90;0.60;;;;;;;5.93;72.17;94543.69;5073091;28;20546;-70
2022/01/09 03:22:21;;;;;;;1.00;0.53;;;;;;;6.15;71.48;94549.69;5062767;28;20213;-71
2022/01/09 03:24:46;;;;;;;0.80;0.50;;;;;;;6.23;71.02;94548.75;5072218;28;20613;-71
2022/01/09 03:27:12;;;;;;;0.77;0.50;;;;;;;6.11;71.73;94545.84;5070508;28;20240;-71
2022/01/09 03:29:38;;;;;;;1.13;0.60;;;;;;;6.24;70.84;94550.34;5066219;28;20588;-71
2022/01/09 03:32:05;;;;;;;0.80;0.60;;;;;;;6.28;71.13;94543.78;5067925;28;20770;-72
2022/01/09 03:34:31;;;;;;;0.80;0.60;;;;;;;6.44;70.68;94557.47;5068877;28;20425;-71
2022/01/09 03:36:56;;;;;;;1.00;0.60;;;;;;;6.28;70.71;94550.75;5070312;28;20424;-70
2022/01/09 03:39:22;;;;;;;1.43;0.60;;;;;;;6.44;70.23;94547.06;5072276;28;20198;-71
2022/01/09 03:41:47;;;;;;;0.90;0.70;;;;;;;6.41;70.15;94537.06;5070341;28;20182;-71
2022/01/09 03:44:13;;;;;;;0.80;0.60;;;;;;;6.63;69.61;94547.38;5070222;28;20300;-71
2022/01/09 03:46:39;;;;;;;0.80;0.60;;;;;;;6.44;70.13;94553.06;5071041;28;20194;-71
2022/01/09 03:49:04;;;;;;;0.80;0.60;;;;;;;6.08;70.68;94556.66;5069832;28;20186;-71
2022/01/09 03:51:36;;;;;;;0.80;0.63;;;;;;;6.26;70.68;94558.75;5066838;28;20225;-71
2022/01/09 03:54:03;;;;;;;0.87;0.63;;;;;;;6.03;71.19;94560.81;5069222;28;20536;-71
2022/01/09 03:56:28;;;;;;;1.97;0.63;;;;;;;5.74;72.84;94563.31;5071765;28;20487;-71
2022/01/09 03:58:54;;;;;;;1.00;0.63;;;;;;;6.09;71.96;94567.84;5070641;28;20447;-70
2022/01/09 04:01:19;;;;;;;0.90;0.60;;;;;;;5.67;73.50;94571.06;5070428;28;20189;-71
2022/01/09 04:03:45;;;;;;;0.93;0.60;;;;;;;5.43;73.74;94564.44;5070627;28;20754;-71
2022/01/09 04:06:10;;;;;;;0.97;0.60;;;;;;;5.92;72.61;94573.28;5072274;28;20185;-71
2022/01/09 04:08:37;;;;;;;0.80;0.60;;;;;;;5.64;74.23;94576.66;5071326;28;20179;-72
2022/01/09 04:11:04;;;;;;;2.43;0.60;;;;;;;5.92;73.03;94573.28;5062136;28;20703;-72
2022/01/09 04:13:30;;;;;;;0.90;0.70;;;;;;;6.11;72.19;94576.25;5071847;28;20448;-72
2022/01/09 04:15:56;;;;;;;0.90;0.70;;;;;;;5.95;73.04;94569.50;5072264;28;20486;-71
2022/01/09 04:18:23;;;;;;;1.20;0.53;;;;;;;5.61;73.71;94582.22;5071133;28;20412;-70
2022/01/09 04:20:48;;;;;;;0.80;0.60;;;;;;;5.83;73.51;94585.63;5069937;28;20190;-71
2022/01/09 04:23:15;;;;;;;1.00;0.70;;;;;;;5.90;73.41;94585.69;5067469;28;20452;-71
2022/01/09 04:25:42;;;;;;;0.80;0.70;;;;;;;5.52;74.69;94591.13;5075271;28;20481;-71
2022/01/09 04:28:07;;;;;;;1.53;0.57;;;;;;;5.23;76.11;94598.78;5074702;28;20436;-71
2022/01/09 04:30:33;;;;;;;1.00;0.60;;;;;;;5.46;75.10;94604.84;5075319;28;20954;-71
2022/01/09 04:32:58;;;;;;;2.43;0.60;;;;;;;5.22;76.02;94622.34;5070051;28;20561;-70
2022/01/09 04:35:24;;;;;;;0.90;0.60;;;;;;;5.18;75.50;94616.72;5075444;28;20641;-70
2022/01/09 04:37:50;;;;;;;0.70;0.50;;;;;;;5.90;74.23;94626.44;5074428;28;20182;-71
2022/01/09 04:40:18;;;;;;;0.90;0.60;;;;;;;5.53;75.41;94639.50;5064233;28;20186;-71
2022/01/09 04:43:07;;;;;;;6.23;0.60;;;;;;;5.33;75.79;94644.47;5069077;28;20218;-71
2022/01/09 04:45:30;;;;;;;1.23;0.50;;;;;;;5.49;75.56;94664.22;5048364;28;20521;-71
2022/01/09 04:48:01;;;;;;;0.80;0.50;;;;;;;4.84;76.34;94674.38;5036024;28;20528;-69
2022/01/09 04:50:29;;;;;;;1.00;0.60;;;;;;;5.08;75.96;94694.88;5054251;28;20909;-71
2022/01/09 04:53:00;;;;;;;0.90;0.50;;;;;;;4.94;76.79;94715.66;5055104;28;20445;-71
2022/01/09 04:55:27;;;;;;;0.77;0.60;;;;;;;4.99;76.38;94718.50;5055399;28;20446;-70
2022/01/09 04:57:53;;;;;;;0.80;0.60;;;;;;;4.87;75.89;94716.34;5053556;28;20450;-71
2022/01/09 05:00:19;;;;;;;0.70;0.40;;;;;;;4.85;75.75;94727.91;5070975;28;20462;-70
2022/01/09 05:02:44;;;;;;;1.33;0.50;;;;;;;4.71;76.42;94743.28;5054478;28;20261;-70
2022/01/09 05:05:11;;;;;;;1.83;0.60;;;;;;;4.62;76.30;94744.34;5053180;28;20194;-70
2022/01/09 05:07:37;;;;;;;0.70;0.50;;;;;;;4.33;77.73;94740.66;5055056;28;20210;-71
2022/01/09 05:10:04;;;;;;;0.70;0.50;;;;;;;4.50;77.40;94763.88;5064413;28;20422;-70
2022/01/09 05:12:29;;;;;;;1.13;0.60;;;;;;;4.69;76.13;94775.56;5056400;28;20997;-70
2022/01/09 05:14:55;;;;;;;0.90;0.77;;;;;;;4.32;77.08;94779.75;5053118;28;20509;-69
2022/01/09 05:17:21;;;;;;;0.70;0.50;;;;;;;4.07;77.53;94774.72;5052961;28;20175;-70
2022/01/09 05:19:47;;;;;;;0.70;0.43;;;;;;;4.16;76.97;94791.81;5053857;28;20176;-72
2022/01/09 05:22:13;;;;;;;0.70;0.50;;;;;;;4.30;76.68;94814.44;5058524;28;20404;-71
2022/01/09 05:24:38;;;;;;;0.80;0.50;;;;;;;4.20;76.87;94820.81;5052574;28;20548;-70
2022/01/09 05:27:04;;;;;;;0.70;0.50;;;;;;;4.12;76.77;94822.47;5053206;28;20206;-69
2022/01/09 05:29:30;;;;;;;0.70;0.50;;;;;;;4.09;77.86;94820.22;5053343;28;20183;-71
2022/01/09 05:31:55;;;;;;;0.80;0.50;;;;;;;4.13;76.47;94828.44;5047740;28;20242;-70
2022/01/09 05:34:21;;;;;;;0.90;0.50;;;;;;;4.55;76.30;94845.41;5052863;28;20186;-71
2022/01/09 05:36:47;;;;;;;0.73;0.50;;;;;;;4.67;75.53;94839.78;5052301;28;20186;-70
2022/01/09 05:39:12;;;;;;;0.80;0.50;;;;;;;3.93;76.94;94859.97;5052855;28;20190;-69
2022/01/09 05:41:40;;;;;;;1.20;0.50;;;;;;;3.97;77.90;94876.78;5052796;28;20183;-71
2022/01/09 05:44:06;;;;;;;0.70;0.50;;;;;;;4.02;77.06;94883.25;5052243;28;20209;-71
2022/01/09 05:46:31;;;;;;;0.90;0.50;;;;;;;3.90;77.32;94894.00;5057884;28;20437;-71
2022/01/09 05:48:57;;;;;;;0.90;0.50;;;;;;;3.97;77.27;94901.91;5064164;28;20233;-70
2022/01/09 05:51:23;;;;;;;0.80;0.50;;;;;;;3.90;77.27;94903.56;5053081;28;20195;-71
2022/01/09 05:53:48;;;;;;;1.27;0.57;;;;;;;4.23;76.72;94919.78;5060485;28;20206;-71
2022/01/09 05:56:14;;;;;;;0.70;0.50;;;;;;;4.11;76.61;94927.13;5060868;28;20182;-71
2022/01/09 05:58:39;;;;;;;1.83;0.70;;;;;;;4.11;76.35;94942.69;5052885;28;20190;-72
2022/01/09 06:01:05;;;;;;;0.80;0.50;;;;;;;3.89;77.29;94940.81;5052210;28;20191;-70
2022/01/09 06:03:31;;;;;;;0.80;0.60;;;;;;;3.67;77.99;94943.13;5050297;28;20298;-72
2022/01/09 06:05:56;;;;;;;1.10;0.57;;;;;;;3.96;77.33;94952.13;5052935;28;20421;-71
2022/01/09 06:08:22;;;;;;;0.80;0.60;;;;;;;4.13;77.02;94952.88;5052808;28;20176;-72
2022/01/09 06:10:48;;;;;;;2.70;0.60;;;;;;;3.98;77.60;94948.38;5053819;28;20240;-70
2022/01/09 06:13:13;;;;;;;3.17;0.70;;;;;;;4.17;77.08;94959.38;5051754;28;20742;-71
2022/01/09 06:15:39;;;;;;;1.30;0.70;;;;;;;4.10;76.31;94968.75;5059038;28;20201;-70
2022/01/09 06:18:05;;;;;;;1.97;0.70;;;;;;;4.10;77.22;94973.94;5054403;28;20187;-71
2022/01/09 06:20:30;;;;;;;0.90;0.60;;;;;;;4.20;76.47;94973.75;5052442;28;20206;-72
2022/01/09 06:22:56;;;;;;;3.50;0.87;;;;;;;4.15;76.26;94985.47;5054681;28;20464;-70
2022/01/09 06:25:22;;;;;;;2.60;0.73;;;;;;;4.31;75.95;94988.97;5052618;28;20688;-71
2022/01/09 06:27:47;;;;;;;1.40;0.80;;;;;;;4.35;76.09;94985.06;5051929;28;20265;-72
2022/01/09 06:30:13;;;;;;;0.90;0.70;;;;;;;4.35;76.01;95000.63;5051406;28;20198;-71
2022/01/09 06:32:39;;;;;;;0.90;0.60;;;;;;;4.70;75.09;95001.13;5052578;28;20198;-71
2022/01/09 06:35:06;;;;;;;1.33;0.70;;;;;;;4.04;77.56;95009.13;5052181;28;20187;-71
2022/01/09 06:37:31;;;;;;;8.10;0.83;;;;;;;4.58;75.96;95003.31;5050883;28;20225;-71
2022/01/09 06:39:57;;;;;;;2.40;0.60;;;;;;;4.75;74.55;95011.81;5050188;28;20517;-71
2022/01/09 06:42:22;;;;;;;0.80;0.60;;;;;;;3.81;77.42;95020.19;5047646;28;20272;-71
2022/01/09 06:44:48;;;;;;;0.80;0.60;;;;;;;4.31;76.04;95022.66;5051592;28;20183;-70
2022/01/09 06:47:13;;;;;;;0.80;0.60;;;;;;;4.17;76.68;95033.72;5050313;28;20203;-71
2022/01/09 06:49:39;;;;;;;0.80;0.50;;;;;;;3.63;78.02;95042.88;5050352;28;20617;-71
2022/01/09 06:52:05;;;;;;;0.90;0.70;;;;;;;3.58;78.96;95047.72;5069974;28;20209;-71
2022/01/09 06:54:31;;;;;;;0.80;0.70;;;;;;;3.62;79.06;95051.59;5071839;28;20182;-71
2022/01/09 06:56:56;;;;;;;0.80;0.60;;;;;;;3.95;77.43;95064.53;5071861;28;20231;-70
2022/01/09 06:59:22;;;;;;;0.80;0.60;;;;;;;3.84;77.81;95063.13;5064004;28;20195;-71
2022/01/09 07:01:47;;;;;;;0.80;0.60;;;;;;;3.78;77.44;95072.31;5078242;28;20191;-70
2022/01/09 07:04:13;;;;;;;0.80;0.70;;;;;;;3.96;77.08;95071.34;5078229;28;20623;-71
2022/01/09 07:06:39;;;;;;;1.00;0.70;;;;;;;4.00;76.78;95077.84;5072081;28;20181;-71
2022/01/09 07:09:05;;;;;;;0.83;0.70;;;;;;;3.73;77.14;95084.97;5070098;28;20193;-71
2022/01/09 07:11:30;;;;;;;1.57;1.00;;;;;;;3.70;77.53;95085.28;5071668;28;20550;-70
2022/01/09 07:13:56;;;;;;;0.80;0.70;;;;;;;3.33;79.24;95102.91;5071244;28;20433;-72
2022/01/09 07:16:21;;;;;;;0.80;0.70;;;;;;;3.29;78.76;95103.34;5068598;28;20309;-71
2022/01/09 07:18:47;;;;;;;1.50;0.70;;;;;;;3.60;79.20;95111.31;5059343;28;20194;-72
2022/01/09 07:21:13;;;;;;;0.90;0.70;;;;;;;4.03;76.64;95108.63;5055287;28;20582;-71
2022/01/09 07:23:38;;;;;;;1.20;1.07;;;;;;;3.75;77.40;95119.28;5067886;28;20289;-72
2022/01/09 07:26:04;;;;;;;2.70;1.00;;;;;;;3.58;77.83;95117.66;5063054;28;20638;-71
2022/01/09 07:28:30;;;;;;;2.67;1.07;;;;;;;3.60;78.66;95129.47;5071153;28;20174;-71
2022/01/09 07:30:55;;;;;;;5.27;1.00;;;;;;;3.97;77.49;95135.97;5070715;28;20269;-70
2022/01/09 07:33:21;;;;;;;2.80;1.10;;;;;;;4.05;76.54;95135.16;5064486;28;20285;-71
2022/01/09 07:35:46;;;;;;;4.73;1.50;;;;;;;4.21;75.95;95130.94;5071078;28;20178;-69
2022/01/09 07:38:12;;;;;;;2.40;1.50;;;;;;;4.05;76.01;95140.34;5070310;28;20271;-71
2022/01/09 07:40:38;;;;;;;7.40;1.10;;;;;;;4.45;74.46;95148.28;5062631;28;20645;-71
2022/01/09 07:43:03;;;;;;;7.87;1.50;;;;;;;4.23;74.29;95149.75;5070776;28;20213;-71
2022/01/09 07:45:29;;;;;;;10.80;2.40;;;;;;;3.93;75.12;95163.19;5070876;28;20285;-71
2022/01/09 07:47:57;;;;;;;4.53;1.67;;;;;;;3.93;75.45;95165.78;5069621;28;20683;-71
2022/01/09 07:50:23;;;;;;;10.13;2.00;;;;;;;4.21;73.72;95156.88;5065103;28;20269;-71
2022/01/09 07:52:49;;;;;;;4.30;1.70;;;;;;;4.17;73.75;95173.72;5069308;28;20775;-71
2022/01/09 07:55:15;;;;;;;3.07;1.70;;;;;;;4.24;73.18;95177.31;5070069;28;20420;-71
2022/01/09 07:57:41;;;;;;;7.53;2.03;;;;;;;4.41;72.32;95194.47;5071567;28;20424;-71
2022/01/09 08:00:08;;;;;;;3.33;1.63;;;;;;;4.39;72.51;95191.25;5074298;28;20186;-71
2022/01/09 08:02:34;;;;;;;7.60;1.70;;;;;;;4.21;72.96;95203.56;5073496;28;20444;-71
2022/01/09 08:05:00;;;;;;;3.07;1.50;;;;;;;4.24;72.65;95205.81;5074984;28;20968;-71
2022/01/09 08:07:25;;;;;;;5.40;1.50;;;;;;;4.24;71.78;95219.59;5074864;28;20223;-71
2022/01/09 08:09:51;;;;;;;5.40;1.67;;;;;;;4.51;71.34;95202.09;5074409;28;20193;-71
2022/01/09 08:12:16;;;;;;;5.40;1.63;;;;;;;4.36;70.44;95220.09;5073568;28;20607;-73
2022/01/09 08:14:42;;;;;;;4.03;1.23;;;;;;;4.59;70.30;95229.81;5073206;28;20273;-71
2022/01/09 08:17:08;;;;;;;8.60;2.63;;;;;;;4.39;70.21;95226.72;5072185;28;20360;-71
2022/01/09 08:19:35;;;;;;;12.27;2.00;;;;;;;4.28;69.84;95233.88;5064987;28;20784;-71
2022/01/09 08:22:05;;;;;;;8.17;1.70;;;;;;;4.66;68.85;95233.38;5068230;28;20461;-71
2022/01/09 08:24:32;;;;;;;3.50;1.47;;;;;;;4.72;68.78;95235.31;5069342;28;20900;-71
2022/01/09 08:26:57;;;;;;;4.20;1.40;;;;;;;4.32;69.45;95244.72;5070815;28;20420;-70
2022/01/09 08:29:23;;;;;;;3.87;1.37;;;;;;;4.37;67.51;95245.06;5073036;28;20519;-73
2022/01/09 08:31:49;;;;;;;10.47;1.97;;;;;;;4.61;68.05;95246.03;5068922;28;20873;-72
2022/01/09 08:34:15;;;;;;;8.03;1.73;;;;;;;4.85;66.80;95246.97;5071385;28;21928;-73
2022/01/09 08:36:40;;;;;;;8.57;1.60;;;;;;;4.54;67.67;95261.44;5073232;28;20182;-72
2022/01/09 08:39:06;;;;;;;2.97;1.53;;;;;;;4.65;66.77;95257.72;5074331;28;20556;-71
2022/01/09 08:41:32;;;;;;;7.10;2.00;;;;;;;4.73;67.28;95281.06;5073894;28;20185;-71
2022/01/09 08:44:00;;;;;;;4.70;1.63;;;;;;;4.55;66.42;95277.78;5074017;28;20206;-73
2022/01/09 08:46:26;;;;;;;5.60;1.93;;;;;;;4.68;66.90;95272.94;5069606;28;20464;-72
2022/01/09 08:48:52;;;;;;;5.00;1.90;;;;;;;4.66;67.22;95281.88;5050372;28;20960;-69
2022/01/09 08:51:18;;;;;;;3.13;1.90;;;;;;;4.70;66.48;95285.75;5057674;28;20189;-71
2022/01/09 08:53:50;;;;;;;9.93;1.87;;;;;;;4.55;66.99;95281.22;5051421;28;20445;-71
2022/01/09 08:56:18;;;;;;;10.67;1.80;;;;;;;4.62;65.97;95289.16;5056500;28;20646;-73
2022/01/09 08:58:44;;;;;;;6.87;1.93;;;;;;;4.84;65.60;95282.53;5047902;28;21657;-71
2022/01/09 09:01:10;;;;;;;8.23;2.20;;;;;;;5.15;64.38;95288.81;5061593;28;20796;-72
2022/01/09 09:03:40;;;;;;;9.73;1.87;;;;;;;4.83;65.00;95290.44;5057133;28;20628;-73
2022/01/09 09:06:07;;;;;;;4.07;1.70;;;;;;;5.11;65.32;95303.09;5068715;28;20187;-73
2022/01/09 09:08:33;;;;;;;7.63;1.60;;;;;;;5.02;64.60;95300.50;5060837;28;20432;-72
2022/01/09 09:10:59;;;;;;;5.27;1.50;;;;;;;5.65;63.92;95294.66;5072942;28;20432;-71
2022/01/09 09:13:24;;;;;;;5.70;1.93;;;;;;;5.27;64.48;95302.25;5055096;28;21104;-75
2022/01/09 09:15:50;;;;;;;8.43;2.00;;;;;;;5.47;64.12;95306.09;5049304;28;20643;-75
2022/01/09 09:18:16;;;;;;;9.03;2.33;;;;;;;5.04;65.66;95311.53;5072185;28;20205;-75
2022/01/09 09:20:41;;;;;;;4.17;1.60;;;;;;;5.54;64.72;95299.25;5063557;28;20687;-74
2022/01/09 09:23:07;;;;;;;7.53;1.83;;;;;;;5.60;64.45;95315.97;5069083;28;20217;-72
2022/01/09 09:25:32;;;;;;;9.07;1.77;;;;;;;5.40;64.49;95323.31;5073104;28;20366;-73
2022/01/09 09:27:58;;;;;;;7.57;2.30;;;;;;;5.21;64.14;95329.69;5072957;28;20902;-72
2022/01/09 09:30:23;;;;;;;8.77;2.20;;;;;;;5.51;63.55;95324.75;5072566;28;20311;-72
2022/01/09 09:32:49;;;;;;;8.37;2.07;;;;;;;5.32;64.26;95342.31;5064087;28;20691;-72
2022/01/09 09:35:15;;;;;;;3.57;1.30;;;;;;;5.42;64.10;95334.38;5061801;28;20187;-73
2022/01/09 09:37:40;;;;;;;11.00;1.70;;;;;;;5.59;63.10;95337.72;5071266;28;20185;-72
2022/01/09 09:40:07;;;;;;;9.80;2.13;;;;;;;5.50;62.96;95341.31;5070706;28;20197;-71
2022/01/09 09:42:33;;;;;;;6.60;1.37;;;;;;;5.79;62.91;95337.34;5071967;28;20247;-73
2022/01/09 09:45:01;;;;;;;4.23;1.80;;;;;;;5.95;62.68;95355.47;5067244;28;20425;-71
2022/01/09 09:47:28;;;;;;;11.13;1.93;;;;;;;5.26;63.69;95360.34;5066270;28;20644;-73
2022/01/09 09:49:54;;;;;;;9.00;1.93;;;;;;;5.46;64.05;95373.81;5062202;28;20436;-72
2022/01/09 09:52:19;;;;;;;13.53;2.00;;;;;;;5.60;63.50;95373.13;5070699;28;20441;-71
2022/01/09 09:54:50;;;;;;;6.93;1.60;;;;;;;5.27;65.19;95374.97;5054613;28;20425;-72
2022/01/09 09:57:16;;;;;;;8.23;1.80;;;;;;;5.48;64.12;95364.84;5068412;28;20241;-71
2022/01/09 09:59:42;;;;;;;8.00;2.50;;;;;;;5.61;63.17;95364.38;5066706;28;20574;-72
2022/01/09 10:02:11;;;;;;;9.00;1.97;;;;;;;5.79;63.77;95360.75;5058735;28;20437;-72
2022/01/09 10:04:56;;;;;;;7.33;1.70;;;;;;;6.08;62.86;95370.59;5071956;28;20206;-72
2022/01/09 10:07:23;;;;;;;9.13;1.90;;;;;;;5.87;63.70;95363.31;5070971;28;20421;-72
2022/01/09 10:09:53;;;;;;;10.20;1.73;;;;;;;5.15;67.63;95375.31;5071588;28;20534;-72
2022/01/09 10:12:39;;;;;;;7.33;1.83;;;;;;;5.25;67.46;95375.13;5064190;28;20448;-73
2022/01/09 10:15:10;;;;;;;9.10;2.20;;;;;;;5.59;67.49;95362.91;5065223;28;20913;-73
2022/01/09 10:17:41;;;;;;;6.33;1.73;;;;;;;5.80;67.89;95365.78;5072610;28;20484;-71
2022/01/09 10:20:13;;;;;;;10.90;2.23;;;;;;;5.37;68.32;95371.22;5066840;28;20464;-72
2022/01/09 10:22:44;;;;;;;5.73;1.63;;;;;;;5.72;67.49;95364.97;5068214;28;20436;-72
2022/01/09 10:25:25;;;;;;;11.23;2.50;;;;;;;6.02;67.20;95360.84;5072826;28;20486;-73
2022/01/09 10:28:17;;;;;;;13.20;2.63;;;;;;;6.20;65.55;95360.59;5068438;28;20594;-72
2022/01/09 10:30:47;;;;;;;12.87;3.00;;;;;;;6.43;65.10;95375.44;5068965;28;20428;-71
2022/01/09 10:33:15;;;;;;;5.00;1.67;;;;;;;5.77;65.74;95370.50;5075845;28;20442;-72
2022/01/09 10:35:45;;;;;;;5.77;2.00;;;;;;;6.01;65.58;95377.41;5075406;28;20463;-71
2022/01/09 10:38:15;;;;;;;5.07;1.77;;;;;;;5.68;66.76;95382.69;5080154;28;20432;-71
2022/01/09 10:40:44;;;;;;;8.30;1.90;;;;;;;5.25;69.50;95385.53;5075030;28;20431;-71
2022/01/09 10:43:18;;;;;;;8.80;3.37;;;;;;;5.53;68.59;95391.16;5053401;28;20454;-73
2022/01/09 10:45:58;;;;;;;11.33;2.00;;;;;;;5.36;69.67;95392.97;5075980;28;20421;-73
2022/01/09 10:48:33;;;;;;;7.63;2.20;;;;;;;5.10;69.56;95397.53;5071139;28;20923;-72
2022/01/09 10:51:00;;;;;;;11.23;2.20;;;;;;;5.49;69.53;95402.06;5065049;28;21374;-72
2022/01/09 10:53:37;;;;;;;8.50;2.07;;;;;;;5.43;70.39;95405.31;5070833;28;20432;-73
2022/01/09 10:56:08;;;;;;;10.23;2.40;;;;;;;5.56;69.18;95415.22;5070373;28;20913;-72
2022/01/09 10:58:39;;;;;;;8.87;2.07;;;;;;;5.66;68.73;95421.03;5069569;28;20960;-72
2022/01/09 11:01:23;;;;;;;6.17;1.93;;;;;;;5.72;69.32;95409.16;5070105;28;20567;-73
2022/01/09 11:03:52;;;;;;;4.23;2.27;;;;;;;5.45;68.62;95408.56;5054694;28;20456;-72
2022/01/09 11:06:18;;;;;;;6.53;2.20;;;;;;;5.67;68.23;95417.47;5062316;28;20427;-72
2022/01/09 11:08:45;;;;;;;4.07;2.10;;;;;;;5.73;67.88;95409.03;5064678;28;21114;-71
2022/01/09 11:11:21;;;;;;;8.47;1.90;;;;;;;5.66;68.04;95411.47;5062896;28;20512;-71
2022/01/09 11:13:48;;;;;;;10.13;3.20;;;;;;;5.56;68.30;95413.41;5065759;28;20433;-72
2022/01/09 11:16:33;;;;;;;9.73;3.20;;;;;;;6.01;66.65;95413.03;5057187;28;20425;-72
2022/01/09 11:19:10;;;;;;;8.63;2.27;;;;;;;6.27;66.72;95408.38;5070221;28;20419;-72
2022/01/09 11:21:38;;;;;;;8.97;2.60;;;;;;;6.11;66.68;95404.03;5062906;28;20421;-72
2022/01/09 11:24:25;;;;;;;9.73;2.20;;;;;;;5.79;67.60;95410.16;5067657;28;20457;-74
2022/01/09 11:26:58;;;;;;;6.87;1.77;;;;;;;6.48;65.64;95409.56;5059280;28;20457;-73
2022/01/09 11:29:40;;;;;;;5.00;2.53;;;;;;;6.32;65.66;95412.25;5052995;28;20425;-74
2022/01/09 11:32:19;;;;;;;8.50;1.80;;;;;;;6.34;65.30;95410.28;5053537;28;20425;-73
2022/01/09 11:34:51;;;;;;;4.77;2.13;;;;;;;5.37;68.06;95423.19;5050776;28;21142;-75
2022/01/09 11:37:56;;;;;;;6.80;1.60;;;;;;;5.75;66.57;95408.84;5050281;28;20436;-74
2022/01/09 11:40:26;;;;;;;8.90;1.80;;;;;;;5.98;65.74;95412.34;5053148;28;20440;-73
2022/01/09 11:43:07;;;;;;;5.73;1.70;;;;;;;5.79;66.89;95413.53;5052858;28;20991;-72